createdAt,value
2023-04-03T00:00:14.630Z,2.06
2023-04-03T00:02:42.482Z,2.14
2023-04-03T00:05:10.401Z,2.23
2023-04-03T00:07:39.519Z,2.28
2023-04-03T00:10:08.648Z,2.15
2023-04-03T00:12:36.337Z,2.28
2023-04-03T00:15:04.812Z,2.26
2023-04-03T00:17:32.555Z,2.30
2023-04-03T00:20:00.337Z,2.25
2023-04-03T00:22:29.641Z,2.30
2023-04-03T00:24:58.692Z,2.19
2023-04-03T00:27:26.411Z,2.20
2023-04-03T00:29:54.084Z,2.06
2023-04-03T00:32:21.741Z,1.95
2023-04-03T00:34:49.482Z,1.96
2023-04-03T00:37:17.086Z,2.08
2023-04-03T00:39:44.700Z,2.47
2023-04-03T00:42:13.891Z,2.34
2023-04-03T00:45:18.916Z,2.29
2023-04-03T00:47:46.935Z,2.08
2023-04-03T00:50:14.608Z,2.08
2023-04-03T00:52:42.505Z,1.93
2023-04-03T00:55:11.828Z,1.99
2023-04-03T00:57:40.857Z,2.07
2023-04-03T01:00:12.216Z,1.89
2023-04-03T01:02:41.719Z,1.86
2023-04-03T01:05:11.676Z,1.79
2023-04-03T01:07:40.264Z,1.64
2023-04-03T01:10:14.714Z,1.61
2023-04-03T01:12:46.584Z,1.54
2023-04-03T01:15:17.613Z,1.53
2023-04-03T01:17:47.051Z,1.41
2023-04-03T01:20:48.892Z,1.27
2023-04-03T01:23:32.679Z,1.13
2023-04-03T01:26:00.365Z,1.19
2023-04-03T01:28:31.362Z,1.17
2023-04-03T01:31:10.335Z,1.06
2023-04-03T01:33:40.074Z,0.99
2023-04-03T01:36:09.496Z,1.00
2023-04-03T01:38:37.636Z,0.97
2023-04-03T01:41:05.307Z,0.91
2023-04-03T01:43:33.568Z,0.88
2023-04-03T01:46:01.262Z,0.94
2023-04-03T01:48:28.991Z,0.85
2023-04-03T01:50:57.942Z,0.88
2023-04-03T01:53:25.797Z,0.92
2023-04-03T01:55:53.430Z,0.94
2023-04-03T01:58:21.668Z,0.85
2023-04-03T02:00:51.165Z,0.89
2023-04-03T02:03:18.929Z,0.82
2023-04-03T02:05:47.269Z,0.82
2023-04-03T02:08:18.840Z,0.71
2023-04-03T02:10:49.265Z,0.70
2023-04-03T02:13:17.765Z,-0.11
2023-04-03T02:15:47.250Z,0.81
2023-04-03T02:18:18.873Z,0.68
2023-04-03T02:20:48.100Z,0.80
2023-04-03T02:23:17.496Z,0.79
2023-04-03T02:25:45.665Z,0.76
2023-04-03T02:28:13.862Z,0.82
2023-04-03T02:30:41.614Z,0.80
2023-04-03T02:33:09.327Z,0.78
2023-04-03T02:35:37.858Z,0.75
2023-04-03T02:38:05.544Z,0.64
2023-04-03T02:40:36.453Z,0.59
2023-04-03T02:43:04.589Z,0.63
2023-04-03T02:45:32.682Z,0.60
2023-04-03T02:48:00.527Z,0.56
2023-04-03T02:50:28.158Z,0.54
2023-04-03T02:52:56.167Z,0.54
2023-04-03T02:55:23.940Z,0.47
2023-04-03T02:57:55.886Z,0.52
2023-04-03T03:00:23.707Z,0.54
2023-04-03T03:02:51.398Z,0.50
2023-04-03T03:05:19.449Z,0.45
2023-04-03T03:07:47.150Z,0.45
2023-04-03T03:10:14.928Z,0.44
2023-04-03T03:12:42.893Z,0.44
2023-04-03T03:15:12.692Z,0.44
2023-04-03T03:17:40.388Z,0.40
2023-04-03T03:20:09.709Z,0.38
2023-04-03T03:22:38.079Z,0.33
2023-04-03T03:25:06.959Z,0.36
2023-04-03T03:27:34.743Z,0.35
2023-04-03T03:30:02.431Z,0.29
2023-04-03T03:32:31.892Z,0.36
2023-04-03T03:34:59.514Z,0.30
2023-04-03T03:37:28.376Z,0.28
2023-04-03T03:39:56.165Z,0.29
2023-04-03T03:42:24.160Z,0.31
2023-04-03T03:44:52.762Z,0.24
2023-04-03T03:47:21.340Z,0.18
2023-04-03T03:49:50.881Z,0.10
2023-04-03T03:52:18.948Z,0.14
2023-04-03T03:54:47.021Z,0.15
2023-04-03T03:57:14.822Z,0.15
2023-04-03T03:59:42.857Z,0.09
2023-04-03T04:02:10.895Z,0.12
2023-04-03T04:04:38.707Z,0.11
2023-04-03T04:07:07.724Z,0.09
2023-04-03T04:09:36.422Z,0.07
2023-04-03T04:12:04.841Z,0.02
2023-04-03T04:14:33.829Z,-0.04
2023-04-03T04:17:03.272Z,0.00
2023-04-03T04:19:31.196Z,-0.05
2023-04-03T04:21:58.901Z,-0.07
2023-04-03T04:24:28.113Z,-0.07
2023-04-03T04:26:57.426Z,-0.05
2023-04-03T04:29:26.077Z,-0.11
2023-04-03T04:31:54.176Z,-0.01
2023-04-03T04:34:23.593Z,0.04
2023-04-03T04:36:51.640Z,0.04
2023-04-03T04:39:19.472Z,-0.01
2023-04-03T04:41:48.659Z,-0.16
2023-04-03T04:44:16.829Z,-0.14
2023-04-03T04:46:44.822Z,-0.12
2023-04-03T04:49:12.521Z,-0.28
2023-04-03T04:51:51.027Z,-0.18
2023-04-03T04:54:21.976Z,-0.19
2023-04-03T04:56:52.292Z,-0.12
2023-04-03T04:59:21.485Z,-0.13
2023-04-03T05:01:50.344Z,-0.16
2023-04-03T05:04:18.880Z,-0.16
2023-04-03T05:06:50.271Z,-0.10
2023-04-03T05:09:23.219Z,-0.06
2023-04-03T05:11:53.654Z,-0.07
2023-04-03T05:14:25.072Z,-0.02
2023-04-03T05:16:54.825Z,-0.04
2023-04-03T05:19:25.404Z,-0.12
2023-04-03T05:21:53.249Z,-0.13
2023-04-03T05:24:22.146Z,-0.06
2023-04-03T05:26:49.791Z,-0.03
2023-04-03T05:29:19.035Z,0.03
2023-04-03T05:31:48.159Z,0.04
2023-04-03T05:34:16.013Z,0.04
2023-04-03T05:36:44.872Z,0.07
2023-04-03T05:39:14.066Z,0.09
2023-04-03T05:41:44.452Z,0.12
2023-04-03T05:44:12.281Z,0.20
2023-04-03T05:46:42.352Z,0.23
2023-04-03T05:49:11.417Z,0.23
2023-04-03T05:51:40.598Z,0.33
2023-04-03T05:54:19.514Z,0.32
2023-04-03T05:56:47.687Z,0.42
2023-04-03T05:59:15.561Z,0.58
2023-04-03T06:01:44.925Z,0.60
2023-04-03T06:04:13.911Z,0.78
2023-04-03T06:06:46.683Z,0.91
2023-04-03T06:09:14.464Z,1.07
2023-04-03T06:11:42.744Z,1.11
2023-04-03T06:14:11.729Z,1.19
2023-04-03T06:16:40.233Z,1.31
2023-04-03T06:19:10.616Z,1.31
2023-04-03T06:21:41.418Z,1.61
2023-04-03T06:24:11.361Z,1.79
2023-04-03T06:26:38.984Z,2.01
2023-04-03T06:29:06.604Z,2.11
2023-04-03T06:31:34.269Z,2.53
2023-04-03T06:34:02.272Z,2.64
2023-04-03T06:36:31.346Z,3.02
2023-04-03T06:38:59.094Z,3.33
2023-04-03T06:41:27.625Z,3.39
2023-04-03T06:43:57.310Z,3.70
2023-04-03T06:46:25.021Z,3.85
2023-04-03T06:48:53.170Z,4.02
2023-04-03T06:51:23.355Z,4.21
2023-04-03T06:53:54.341Z,4.26
2023-04-03T06:56:22.086Z,4.34
2023-04-03T06:58:50.009Z,4.60
2023-04-03T07:01:20.098Z,4.54
2023-04-03T07:03:48.859Z,4.59
2023-04-03T07:06:18.743Z,4.62
2023-04-03T07:08:47.157Z,4.78
2023-04-03T07:11:16.579Z,4.60
2023-04-03T07:13:44.333Z,4.58
2023-04-03T07:16:12.509Z,4.62
2023-04-03T07:18:40.986Z,4.78
2023-04-03T07:21:08.753Z,4.69
2023-04-03T07:23:36.486Z,4.84
2023-04-03T07:26:04.228Z,4.94
2023-04-03T07:28:33.267Z,5.01
2023-04-03T07:31:03.501Z,4.94
2023-04-03T07:33:31.961Z,5.30
2023-04-03T07:36:01.310Z,5.60
2023-04-03T07:38:29.399Z,5.98
2023-04-03T07:40:57.256Z,6.12
2023-04-03T07:43:25.655Z,6.13
2023-04-03T07:45:55.626Z,6.27
2023-04-03T07:48:24.990Z,6.36
2023-04-03T07:50:53.101Z,6.42
2023-04-03T07:53:21.008Z,5.83
2023-04-03T07:55:49.992Z,6.65
2023-04-03T07:58:20.160Z,6.58
2023-04-03T08:00:48.553Z,6.74
2023-04-03T08:03:18.851Z,6.65
2023-04-03T08:05:48.715Z,6.93
2023-04-03T08:08:20.907Z,7.20
2023-04-03T08:10:52.031Z,7.14
2023-04-03T08:13:19.923Z,6.92
2023-04-03T08:15:47.703Z,6.99
2023-04-03T08:18:17.538Z,7.18
2023-04-03T08:20:45.833Z,7.17
2023-04-03T08:23:13.585Z,7.30
2023-04-03T08:25:41.791Z,7.45
2023-04-03T08:28:09.914Z,7.78
2023-04-03T08:30:38.652Z,7.91
2023-04-03T08:33:07.150Z,7.73
2023-04-03T08:35:41.546Z,7.50
2023-04-03T08:38:09.537Z,7.38
2023-04-03T08:40:37.223Z,7.70
2023-04-03T08:43:19.001Z,7.88
2023-04-03T08:45:51.244Z,7.98
2023-04-03T08:48:22.661Z,8.48
2023-04-03T08:50:55.499Z,8.54
2023-04-03T08:53:28.107Z,8.40
2023-04-03T08:55:57.174Z,8.38
2023-04-03T08:58:27.886Z,8.00
2023-04-03T09:00:59.172Z,7.86
2023-04-03T09:03:27.295Z,8.13
2023-04-03T09:06:02.004Z,7.79
2023-04-03T09:08:32.781Z,8.55
2023-04-03T09:11:14.804Z,8.49
2023-04-03T09:13:51.618Z,8.40
2023-04-03T09:16:28.255Z,8.48
2023-04-03T09:19:04.829Z,7.90
2023-04-03T09:21:39.184Z,7.31
2023-04-03T09:24:09.153Z,7.43
2023-04-03T09:26:44.555Z,7.41
2023-04-03T09:29:19.579Z,7.26
2023-04-03T09:31:49.782Z,7.29
2023-04-03T09:34:24.484Z,7.01
2023-04-03T09:36:57.068Z,7.19
2023-04-03T09:39:28.054Z,7.31
2023-04-03T09:42:02.235Z,7.56
2023-04-03T09:44:32.616Z,7.97
2023-04-03T09:47:01.268Z,8.09
2023-04-03T09:49:29.307Z,8.19
2023-04-03T09:51:58.286Z,8.28
2023-04-03T09:54:32.715Z,8.60
2023-04-03T09:57:06.178Z,8.65
2023-04-03T09:59:34.817Z,9.17
2023-04-03T10:02:05.237Z,9.37
2023-04-03T10:04:43.291Z,9.31
2023-04-03T10:07:33.499Z,9.14
2023-04-03T10:10:04.990Z,8.66
2023-04-03T10:12:32.741Z,8.56
2023-04-03T10:15:02.297Z,8.29
2023-04-03T10:17:44.857Z,8.44
2023-04-03T10:20:29.162Z,8.49
2023-04-03T10:23:06.196Z,8.69
2023-04-03T10:25:42.889Z,8.57
2023-04-03T10:28:17.962Z,8.95
2023-04-03T10:30:56.067Z,9.39
2023-04-03T10:33:38.153Z,9.40
2023-04-03T10:36:19.578Z,9.71
2023-04-03T10:38:57.494Z,9.87
2023-04-03T10:41:32.777Z,10.40
2023-04-03T10:44:08.734Z,10.31
2023-04-03T10:46:40.114Z,10.23
2023-04-03T10:49:21.253Z,10.10
2023-04-03T10:51:54.546Z,10.10
2023-04-03T10:54:27.872Z,10.12
2023-04-03T10:57:11.066Z,8.72
2023-04-03T10:59:45.712Z,9.12
2023-04-03T11:02:19.973Z,9.80
2023-04-03T11:04:53.152Z,9.99
2023-04-03T11:07:24.204Z,9.20
2023-04-03T11:09:57.868Z,9.50
2023-04-03T11:12:30.944Z,8.95
2023-04-03T11:14:59.046Z,8.92
2023-04-03T11:17:35.350Z,9.59
2023-04-03T11:20:12.104Z,9.21
2023-04-03T11:22:43.878Z,9.70
2023-04-03T11:25:23.722Z,9.63
2023-04-03T11:27:55.777Z,9.55
2023-04-03T11:30:27.366Z,9.56
2023-04-03T11:33:18.473Z,9.93
2023-04-03T11:35:49.058Z,9.48
2023-04-03T11:38:23.859Z,9.91
2023-04-03T11:40:53.508Z,9.91
2023-04-03T11:43:27.696Z,9.50
2023-04-03T11:46:00.123Z,9.45
2023-04-03T11:48:57.301Z,9.58
2023-04-03T11:51:44.933Z,9.15
2023-04-03T11:54:47.588Z,8.96
2023-04-03T11:57:57.968Z,9.08
2023-04-03T12:01:03.496Z,8.89
2023-04-03T12:04:04.314Z,8.42
2023-04-03T12:07:15.723Z,8.34
2023-04-03T12:10:28.703Z,9.07
2023-04-03T12:13:03.261Z,9.54
2023-04-03T12:15:55.657Z,9.34
2023-04-03T12:18:45.421Z,8.92
2023-04-03T12:21:14.989Z,8.64
2023-04-03T12:24:04.659Z,9.34
2023-04-03T12:26:47.629Z,9.70
2023-04-03T12:29:22.359Z,9.07
2023-04-03T12:32:07.134Z,9.31
2023-04-03T12:34:58.070Z,9.33
2023-04-03T12:37:42.741Z,9.81
2023-04-03T12:40:18.525Z,9.82
2023-04-03T12:43:09.103Z,9.93
2023-04-03T12:45:44.565Z,9.29
2023-04-03T12:48:17.718Z,9.35
2023-04-03T12:50:48.977Z,8.75
2023-04-03T12:53:21.258Z,8.97
2023-04-03T12:55:48.927Z,9.80
2023-04-03T12:58:22.806Z,10.60
2023-04-03T13:01:03.130Z,11.37
2023-04-03T13:03:31.390Z,11.25
2023-04-03T13:06:04.245Z,10.66
2023-04-03T13:08:32.513Z,10.01
2023-04-03T13:11:03.547Z,9.94
2023-04-03T13:13:31.911Z,10.20
2023-04-03T13:16:00.609Z,9.85
2023-04-03T13:18:32.017Z,9.26
2023-04-03T13:21:06.664Z,9.44
2023-04-03T13:23:38.297Z,9.33
2023-04-03T13:26:07.779Z,9.36
2023-04-03T13:28:37.818Z,9.91
2023-04-03T13:31:12.574Z,9.85
2023-04-03T13:33:40.885Z,10.48
2023-04-03T13:36:19.527Z,10.72
2023-04-03T13:38:47.204Z,10.32
2023-04-03T13:41:28.266Z,9.92
2023-04-03T13:44:03.423Z,9.96
2023-04-03T13:46:38.408Z,9.85
2023-04-03T13:49:20.828Z,10.31
2023-04-03T13:52:03.938Z,10.19
2023-04-03T13:54:37.471Z,10.21
2023-04-03T13:57:13.743Z,10.33
2023-04-03T13:59:41.413Z,10.73
2023-04-03T14:02:18.782Z,11.33
2023-04-03T14:04:54.147Z,11.57
2023-04-03T14:07:23.219Z,10.65
2023-04-03T14:09:51.583Z,10.44
2023-04-03T14:12:30.871Z,9.54
2023-04-03T14:15:00.521Z,9.16
2023-04-03T14:17:28.697Z,9.11
2023-04-03T14:19:58.500Z,9.39
2023-04-03T14:22:30.246Z,9.62
2023-04-03T14:24:58.437Z,9.89
2023-04-03T14:27:29.481Z,10.32
2023-04-03T14:29:58.851Z,10.46
2023-04-03T14:32:28.081Z,10.57
2023-04-03T14:34:56.218Z,10.29
2023-04-03T14:37:26.021Z,10.28
2023-04-03T14:39:55.911Z,10.17
2023-04-03T14:42:25.342Z,10.13
2023-04-03T14:44:53.669Z,10.12
2023-04-03T14:47:31.251Z,9.86
2023-04-03T14:49:59.864Z,9.86
2023-04-03T14:52:30.388Z,10.13
2023-04-03T14:55:01.234Z,10.30
2023-04-03T14:57:30.528Z,10.06
2023-04-03T14:59:58.712Z,10.06
2023-04-03T15:02:30.384Z,9.65
2023-04-03T15:04:59.147Z,9.72
2023-04-03T15:07:29.626Z,9.68
2023-04-03T15:09:57.680Z,10.20
2023-04-03T15:12:27.191Z,10.20
2023-04-03T15:15:01.084Z,10.20
2023-04-03T15:17:31.346Z,10.31
2023-04-03T15:20:00.496Z,10.08
2023-04-03T15:22:28.327Z,10.16
2023-04-03T15:24:55.981Z,10.16
2023-04-03T15:27:23.824Z,10.26
2023-04-03T15:29:52.791Z,10.52
2023-04-03T15:32:20.540Z,10.24
2023-04-03T15:34:48.148Z,10.37
2023-04-03T15:37:15.756Z,10.19
2023-04-03T15:39:43.406Z,9.77
2023-04-03T15:42:11.049Z,10.05
2023-04-03T15:44:39.043Z,10.01
2023-04-03T15:47:08.111Z,9.86
2023-04-03T15:49:36.411Z,10.18
2023-04-03T15:52:04.410Z,9.86
2023-04-03T15:54:32.216Z,9.96
2023-04-03T15:56:59.914Z,9.67
2023-04-03T15:59:29.900Z,9.84
2023-04-03T16:01:57.640Z,9.72
2023-04-03T16:04:26.884Z,9.63
2023-04-03T16:06:54.567Z,9.61
2023-04-03T16:09:22.181Z,9.61
2023-04-03T16:11:50.008Z,9.50
2023-04-03T16:14:17.661Z,9.25
2023-04-03T16:16:45.633Z,8.98
2023-04-03T16:19:14.030Z,9.13
2023-04-03T16:21:43.084Z,9.01
2023-04-03T16:24:11.003Z,9.12
2023-04-03T16:26:38.615Z,9.06
2023-04-03T16:29:06.252Z,8.94
2023-04-03T16:31:35.596Z,8.86
2023-04-03T16:34:03.502Z,9.01
2023-04-03T16:36:31.234Z,8.83
2023-04-03T16:39:00.385Z,8.69
2023-04-03T16:41:28.053Z,8.52
2023-04-03T16:43:55.706Z,8.22
2023-04-03T16:46:24.393Z,8.27
2023-04-03T16:48:52.036Z,8.30
2023-04-03T16:51:19.683Z,7.97
2023-04-03T16:53:47.438Z,8.05
2023-04-03T16:56:16.741Z,7.95
2023-04-03T16:58:44.924Z,7.85
2023-04-03T17:01:14.144Z,7.78
2023-04-03T17:03:41.921Z,7.66
2023-04-03T17:06:15.541Z,7.79
2023-04-03T17:08:43.915Z,7.65
2023-04-03T17:11:12.048Z,7.58
2023-04-03T17:13:41.067Z,7.40
2023-04-03T17:16:12.012Z,7.46
2023-04-03T17:18:39.892Z,7.42
2023-04-03T17:21:08.775Z,7.27
2023-04-03T17:23:38.225Z,7.19
2023-04-03T17:26:06.313Z,7.05
2023-04-03T17:28:33.985Z,6.73
2023-04-03T17:31:04.017Z,6.72
2023-04-03T17:33:32.044Z,6.79
2023-04-03T17:36:01.347Z,6.65
2023-04-03T17:38:29.522Z,6.55
2023-04-03T17:40:58.382Z,6.47
2023-04-03T17:43:26.832Z,6.33
2023-04-03T17:45:55.954Z,6.18
2023-04-03T17:48:26.277Z,6.14
2023-04-03T17:50:53.906Z,6.03
2023-04-03T17:53:21.550Z,5.87
2023-04-03T17:55:49.179Z,5.86
2023-04-03T17:58:17.527Z,5.63
2023-04-03T18:00:45.276Z,5.41
2023-04-03T18:03:12.952Z,5.42
2023-04-03T18:05:42.108Z,5.09
2023-04-03T18:08:09.887Z,5.28
2023-04-03T18:10:38.454Z,5.05
2023-04-03T18:13:07.748Z,5.06
2023-04-03T18:15:35.709Z,4.95
2023-04-03T18:18:03.529Z,4.84
2023-04-03T18:20:31.439Z,4.76
2023-04-03T18:23:00.512Z,4.71
2023-04-03T18:25:28.375Z,4.69
2023-04-03T18:27:58.426Z,4.68
2023-04-03T18:30:26.445Z,4.61
2023-04-03T18:32:54.319Z,4.58
2023-04-03T18:35:22.036Z,3.90
2023-04-03T18:37:49.660Z,4.05
2023-04-03T18:40:18.940Z,4.11
2023-04-03T18:42:46.720Z,3.97
2023-04-03T18:45:22.417Z,3.85
2023-04-03T18:47:50.649Z,4.27
2023-04-03T18:50:18.592Z,4.27
2023-04-03T18:52:46.952Z,4.19
2023-04-03T18:55:16.850Z,4.05
2023-04-03T18:57:46.424Z,3.91
2023-04-03T19:00:15.371Z,3.94
2023-04-03T19:02:43.764Z,3.87
2023-04-03T19:05:14.829Z,3.94
2023-04-03T19:07:44.660Z,4.08
2023-04-03T19:10:17.055Z,3.91
2023-04-03T19:12:47.136Z,3.79
2023-04-03T19:15:15.345Z,3.89
2023-04-03T19:17:43.143Z,3.74
2023-04-03T19:20:13.217Z,3.55
2023-04-03T19:22:41.909Z,3.56
2023-04-03T19:25:11.505Z,3.56
2023-04-03T19:27:40.290Z,3.54
2023-04-03T19:30:11.979Z,3.49
2023-04-03T19:32:39.817Z,3.66
2023-04-03T19:35:08.940Z,3.66
2023-04-03T19:37:36.897Z,3.75
2023-04-03T19:40:05.704Z,3.64
2023-04-03T19:42:34.479Z,3.60
2023-04-03T19:45:02.124Z,3.54
2023-04-03T19:47:31.335Z,3.42
2023-04-03T19:49:58.982Z,3.32
2023-04-03T19:52:26.629Z,3.19
2023-04-03T19:54:54.540Z,3.15
2023-04-03T19:57:22.228Z,3.00
2023-04-03T19:59:49.913Z,3.09
2023-04-03T20:02:18.756Z,3.04
2023-04-03T20:04:48.765Z,3.05
2023-04-03T20:07:16.566Z,2.93
2023-04-03T20:09:44.345Z,3.00
2023-04-03T20:12:12.256Z,2.98
2023-04-03T20:14:40.936Z,3.06
2023-04-03T20:17:08.595Z,3.14
2023-04-03T20:19:36.727Z,3.13
2023-04-03T20:22:05.791Z,3.27
2023-04-03T20:24:33.963Z,3.17
2023-04-03T20:27:01.831Z,3.17
2023-04-03T20:29:29.459Z,3.01
2023-04-03T20:31:57.596Z,2.83
2023-04-03T20:34:25.769Z,2.85
2023-04-03T20:36:53.417Z,2.81
2023-04-03T20:39:24.600Z,2.72
2023-04-03T20:41:52.838Z,2.71
2023-04-03T20:44:21.720Z,2.74
2023-04-03T20:46:53.467Z,2.65
2023-04-03T20:49:22.802Z,2.61
2023-04-03T20:51:51.108Z,2.52
2023-04-03T20:54:19.002Z,2.35
2023-04-03T20:56:49.566Z,2.41
2023-04-03T20:59:17.673Z,2.47
2023-04-03T21:01:46.805Z,2.53
2023-04-03T21:04:19.290Z,2.22
2023-04-03T21:07:24.434Z,2.34
2023-04-03T21:10:29.613Z,2.24
2023-04-03T21:13:34.729Z,2.27
2023-04-03T21:16:02.172Z,2.26
2023-04-03T21:18:41.953Z,2.15
2023-04-03T21:21:18.709Z,2.16
2023-04-03T21:23:47.149Z,2.25
2023-04-03T21:26:15.425Z,2.27
2023-04-03T21:28:44.054Z,2.33
2023-04-03T21:31:12.758Z,2.05
2023-04-03T21:33:42.383Z,2.23
2023-04-03T21:36:10.611Z,2.24
2023-04-03T21:38:38.274Z,2.22
2023-04-03T21:41:05.986Z,2.20
2023-04-03T21:43:33.691Z,2.09
2023-04-03T21:46:01.870Z,2.17
2023-04-03T21:48:30.522Z,2.09
2023-04-03T21:51:06.522Z,2.33
2023-04-03T21:53:35.452Z,2.35
2023-04-03T21:56:03.111Z,2.35
2023-04-03T21:58:32.326Z,2.43
2023-04-03T22:01:09.486Z,2.19
2023-04-03T22:03:37.182Z,2.39
2023-04-03T22:06:06.866Z,2.37
2023-04-03T22:08:34.717Z,2.36
2023-04-03T22:11:03.549Z,2.18
2023-04-03T22:13:31.427Z,2.27
2023-04-03T22:15:59.347Z,2.31
2023-04-03T22:18:27.339Z,2.29
2023-04-03T22:20:55.684Z,2.25
2023-04-03T22:23:24.735Z,2.32
2023-04-03T22:26:00.157Z,1.93
2023-04-03T22:28:28.565Z,2.27
2023-04-03T22:30:57.103Z,2.29
2023-04-03T22:33:24.816Z,2.30
2023-04-03T22:35:52.808Z,2.15
2023-04-03T22:38:20.450Z,2.09
2023-04-03T22:40:57.380Z,2.17
2023-04-03T22:43:25.358Z,2.13
2023-04-03T22:45:52.967Z,2.07
2023-04-03T22:48:20.948Z,2.11
2023-04-03T22:50:48.647Z,2.17
2023-04-03T22:53:16.964Z,2.18
2023-04-03T22:55:44.689Z,2.09
2023-04-03T22:58:13.657Z,2.02
2023-04-03T23:00:41.731Z,1.97
2023-04-03T23:03:12.864Z,2.05
2023-04-03T23:05:40.830Z,2.03
2023-04-03T23:08:08.445Z,1.97
2023-04-03T23:10:36.193Z,2.08
2023-04-03T23:13:03.900Z,2.01
2023-04-03T23:15:32.886Z,1.97
2023-04-03T23:18:00.656Z,2.02
2023-04-03T23:20:28.289Z,1.96
2023-04-03T23:22:55.922Z,2.10
2023-04-03T23:25:23.624Z,2.05
2023-04-03T23:27:52.539Z,2.01
2023-04-03T23:30:20.913Z,2.18
2023-04-03T23:32:49.889Z,1.96
2023-04-03T23:35:17.894Z,2.05
2023-04-03T23:37:45.594Z,2.09
2023-04-03T23:40:13.741Z,1.86
2023-04-03T23:42:41.454Z,1.92
2023-04-03T23:45:10.211Z,2.01
2023-04-03T23:47:38.252Z,2.07
2023-04-03T23:50:08.557Z,2.01
2023-04-03T23:52:36.185Z,1.95
2023-04-03T23:55:04.499Z,1.84
2023-04-03T23:57:32.223Z,1.97
2023-04-03T23:59:59.858Z,1.93
